PWSweather.com
Personal Weather Stations
Station Observations
AC5CV
Greenleaf Peninsula, Waco, TX 76710

Greenleaf PeninsulaWaco, TX 76710

Lat: 31.565, Lon: -97.198

Elevation: 570

Station Type: Ambient WS2080

http://johnchamber.dyndns.info/

Latest ConditionsUpdated 4:40:00 PM CST Thursday, Dec 14, 2017
Currently Today's Max Today's Min Today's Average
Temperature 60.6°F15.9°C 65.5°F18.6°C 44.6°F7.0°C 53.6°F12.0°C
Dew Point 29.0°F-1.7°C 38.8°F3.8°C 23.6°F-4.7°C 32.5°F0.3°C
Winds 6.9 mph N11.1 kmh N 9.2 mph N14.8 kmh N - 2.4 mph 3.9 kmh
Wind Gusts 17.4 mph28.0 kmh 19.9 mph32.0 kmh - -
Humidity 30% 71% 22% 48%
Pressure 29.42 in996.3 mb 29.44 in997.0 mb 29.28 in991.5 mb -
Hour Temp Dew Point Humidity Winds Wind Gusts Pressure Precip Precip Rate Daily Precip Total
04:40 PM 60.6°F15.9°C 29.0°F-1.7°C 30% 6.9 mph N11.1 kmh N 17.4 mph28.0 kmh 29.42 in996.3 mb 0.00 in0.0 mm 0.00 in0.0 mm 0.00 in0.0 mm
04:35 PM 60.6°F15.9°C 29.0°F-1.7°C 30% 3.7 mph NNW6.0 kmh NNW 7.4 mph11.9 kmh 29.41 in995.9 mb 0.00 in0.0 mm 0.00 in0.0 mm 0.00 in0.0 mm
04:30 PM 60.7°F15.9°C 28.7°F-1.8°C 30% 4.0 mph NW6.4 kmh NW 12.3 mph19.8 kmh 29.41 in995.9 mb 0.00 in0.0 mm 0.00 in0.0 mm 0.00 in0.0 mm
04:25 PM 61.2°F16.2°C 28.7°F-1.8°C 29% 2.9 mph N4.7 kmh N 12.3 mph19.8 kmh 29.41 in995.9 mb 0.00 in0.0 mm 0.00 in0.0 mm 0.00 in0.0 mm
04:20 PM 61.6°F16.4°C 29.0°F-1.7°C 29% 4.3 mph NW6.9 kmh NW 12.3 mph19.8 kmh 29.41 in995.9 mb 0.00 in0.0 mm 0.00 in0.0 mm 0.00 in0.0 mm
04:15 PM 61.7°F16.5°C 29.1°F-1.6°C 29% 3.8 mph NW6.1 kmh NW 12.3 mph19.8 kmh 29.41 in995.9 mb 0.00 in0.0 mm 0.00 in0.0 mm 0.00 in0.0 mm
04:10 PM 61.7°F16.5°C 29.1°F-1.6°C 29% 4.2 mph NW6.8 kmh NW 12.3 mph19.8 kmh 29.41 in995.9 mb 0.00 in0.0 mm 0.00 in0.0 mm 0.00 in0.0 mm
04:05 PM 61.9°F16.6°C 29.0°F-1.7°C 29% 3.9 mph NNW6.3 kmh NNW 7.4 mph11.9 kmh 29.41 in995.9 mb 0.00 in0.0 mm 0.00 in0.0 mm 0.00 in0.0 mm
04:00 PM 62.1°F16.7°C 27.9°F-2.3°C 27% 3.4 mph NNW5.5 kmh NNW 9.8 mph15.8 kmh 29.41 in995.9 mb 0.00 in0.0 mm 0.00 in0.0 mm 0.00 in0.0 mm
03:55 PM 62.1°F16.7°C 28.5°F-1.9°C 28% 3.4 mph N5.5 kmh N 7.4 mph11.9 kmh 29.40 in995.6 mb 0.00 in0.0 mm 0.00 in0.0 mm 0.00 in0.0 mm
03:50 PM 62.2°F16.8°C 28.0°F-2.2°C 27% 2.8 mph N4.5 kmh N 7.4 mph11.9 kmh 29.40 in995.6 mb 0.00 in0.0 mm 0.00 in0.0 mm 0.00 in0.0 mm
03:45 PM 62.2°F16.8°C 27.8°F-2.3°C 27% 2.1 mph NE3.4 kmh NE 4.9 mph7.9 kmh 29.40 in995.6 mb 0.00 in0.0 mm 0.00 in0.0 mm 0.00 in0.0 mm
03:40 PM 62.2°F16.8°C 26.9°F-2.8°C 26% 2.4 mph NW3.9 kmh NW 4.9 mph7.9 kmh 29.40 in995.6 mb 0.00 in0.0 mm 0.00 in0.0 mm 0.00 in0.0 mm
03:35 PM 62.2°F16.8°C 26.3°F-3.2°C 25% 3.8 mph NNE6.1 kmh NNE 7.4 mph11.9 kmh 29.40 in995.6 mb 0.00 in0.0 mm 0.00 in0.0 mm 0.00 in0.0 mm
03:30 PM 62.2°F16.8°C 26.4°F-3.1°C 26% 5.5 mph NNE8.9 kmh NNE 9.8 mph15.8 kmh 29.39 in995.3 mb 0.00 in0.0 mm 0.00 in0.0 mm 0.00 in0.0 mm
03:25 PM 62.4°F16.9°C 26.7°F-2.9°C 26% 5.8 mph N9.3 kmh N 12.3 mph19.8 kmh 29.40 in995.6 mb 0.00 in0.0 mm 0.00 in0.0 mm 0.00 in0.0 mm
03:20 PM 62.4°F16.9°C 26.1°F-3.3°C 25% 4.4 mph N7.1 kmh N 9.8 mph15.8 kmh 29.39 in995.3 mb 0.00 in0.0 mm 0.00 in0.0 mm 0.00 in0.0 mm
03:15 PM 62.4°F16.9°C 26.0°F-3.3°C 25% 5.8 mph NNW9.3 kmh NNW 12.3 mph19.8 kmh 29.39 in995.3 mb 0.00 in0.0 mm 0.00 in0.0 mm 0.00 in0.0 mm
03:10 PM 62.5°F16.9°C 25.3°F-3.7°C 24% 5.7 mph N9.2 kmh N 15.0 mph24.1 kmh 29.39 in995.3 mb 0.00 in0.0 mm 0.00 in0.0 mm 0.00 in0.0 mm
03:05 PM 62.8°F17.1°C 25.5°F-3.6°C 24% 3.5 mph N5.6 kmh N 7.4 mph11.9 kmh 29.39 in995.3 mb 0.00 in0.0 mm 0.00 in0.0 mm 0.00 in0.0 mm
03:00 PM 63.1°F17.3°C 24.9°F-3.9°C 23% 6.2 mph NNW10.0 kmh NNW 15.0 mph24.1 kmh 29.39 in995.3 mb 0.00 in0.0 mm 0.00 in0.0 mm 0.00 in0.0 mm
02:55 PM 63.3°F17.4°C 25.7°F-3.5°C 24% 6.5 mph N10.5 kmh N 12.3 mph19.8 kmh 29.39 in995.3 mb 0.00 in0.0 mm 0.00 in0.0 mm 0.00 in0.0 mm
02:50 PM 63.3°F17.4°C 25.2°F-3.8°C 23% 5.4 mph N8.7 kmh N 9.8 mph15.8 kmh 29.38 in994.9 mb 0.00 in0.0 mm 0.00 in0.0 mm 0.00 in0.0 mm
02:45 PM 63.4°F17.4°C 23.9°F-4.5°C 22% 4.5 mph N7.2 kmh N 9.8 mph15.8 kmh 29.38 in994.9 mb 0.00 in0.0 mm 0.00 in0.0 mm 0.00 in0.0 mm
02:40 PM 63.5°F17.5°C 23.6°F-4.7°C 22% 4.9 mph NE7.9 kmh NE 9.8 mph15.8 kmh 29.38 in994.9 mb 0.00 in0.0 mm 0.00 in0.0 mm 0.00 in0.0 mm
02:35 PM 63.5°F17.5°C 24.0°F-4.4°C 22% 6.2 mph N10.0 kmh N 12.3 mph19.8 kmh 29.38 in994.9 mb 0.00 in0.0 mm 0.00 in0.0 mm 0.00 in0.0 mm
02:30 PM 63.5°F17.5°C 24.3°F-4.3°C 22% 5.1 mph 8.2 kmh 7.4 mph11.9 kmh 29.38 in994.9 mb 0.00 in0.0 mm 0.00 in0.0 mm 0.00 in0.0 mm
02:25 PM 63.5°F17.5°C 24.0°F-4.4°C 22% 4.5 mph N7.2 kmh N 7.4 mph11.9 kmh 29.39 in995.3 mb 0.00 in0.0 mm 0.00 in0.0 mm 0.00 in0.0 mm
02:20 PM 65.2°F18.4°C 26.1°F-3.3°C 23% 5.9 mph NNW9.5 kmh NNW 15.0 mph24.1 kmh 29.38 in994.9 mb 0.00 in0.0 mm 0.00 in0.0 mm 0.00 in0.0 mm
02:15 PM 65.4°F18.6°C 28.7°F-1.8°C 25% 5.7 mph NNW9.2 kmh NNW 9.8 mph15.8 kmh 29.38 in994.9 mb 0.00 in0.0 mm 0.00 in0.0 mm 0.00 in0.0 mm
02:10 PM 65.5°F18.6°C 28.7°F-1.8°C 25% 6.5 mph N10.5 kmh N 9.8 mph15.8 kmh 29.38 in994.9 mb 0.00 in0.0 mm 0.00 in0.0 mm 0.00 in0.0 mm
02:05 PM 65.3°F18.5°C 28.7°F-1.8°C 25% 6.5 mph NE10.5 kmh NE 15.0 mph24.1 kmh 29.37 in994.6 mb 0.00 in0.0 mm 0.00 in0.0 mm 0.00 in0.0 mm
02:00 PM 64.9°F18.3°C 28.4°F-2.0°C 25% 3.7 mph N6.0 kmh N 7.4 mph11.9 kmh 29.38 in994.9 mb 0.00 in0.0 mm 0.00 in0.0 mm 0.00 in0.0 mm
01:55 PM 64.9°F18.3°C 28.2°F-2.1°C 25% 8.0 mph N12.9 kmh N 12.3 mph19.8 kmh 29.38 in994.9 mb 0.00 in0.0 mm 0.00 in0.0 mm 0.00 in0.0 mm
01:50 PM 64.9°F18.3°C 28.0°F-2.2°C 25% 6.8 mph NE10.9 kmh NE 19.9 mph32.0 kmh 29.38 in994.9 mb 0.00 in0.0 mm 0.00 in0.0 mm 0.00 in0.0 mm
01:45 PM 64.9°F18.3°C 28.2°F-2.1°C 25% 5.4 mph N8.7 kmh N 15.0 mph24.1 kmh 29.39 in995.3 mb 0.00 in0.0 mm 0.00 in0.0 mm 0.00 in0.0 mm
01:40 PM 64.9°F18.3°C 27.7°F-2.4°C 24% 5.3 mph NNW8.5 kmh NNW 7.4 mph11.9 kmh 29.37 in994.6 mb 0.00 in0.0 mm 0.00 in0.0 mm 0.00 in0.0 mm
01:35 PM 64.9°F18.3°C 27.2°F-2.7°C 24% 9.2 mph N14.8 kmh N 17.4 mph28.0 kmh 29.37 in994.6 mb 0.00 in0.0 mm 0.00 in0.0 mm 0.00 in0.0 mm
01:30 PM 64.9°F18.3°C 27.6°F-2.4°C 24% 5.5 mph N8.9 kmh N 15.0 mph24.1 kmh 29.38 in994.9 mb 0.00 in0.0 mm 0.00 in0.0 mm 0.00 in0.0 mm
01:25 PM 64.9°F18.3°C 27.6°F-2.4°C 24% 5.0 mph N8.0 kmh N 7.4 mph11.9 kmh 29.37 in994.6 mb 0.00 in0.0 mm 0.00 in0.0 mm 0.00 in0.0 mm
01:20 PM 64.9°F18.3°C 27.8°F-2.3°C 25% 4.2 mph N6.8 kmh N 9.8 mph15.8 kmh 29.37 in994.6 mb 0.00 in0.0 mm 0.00 in0.0 mm 0.00 in0.0 mm
01:15 PM 64.9°F18.3°C 27.2°F-2.7°C 24% 5.0 mph NNW8.0 kmh NNW 12.3 mph19.8 kmh 29.37 in994.6 mb 0.00 in0.0 mm 0.00 in0.0 mm 0.00 in0.0 mm
01:10 PM 64.9°F18.3°C 28.2°F-2.1°C 25% 5.8 mph N9.3 kmh N 12.3 mph19.8 kmh 29.38 in994.9 mb 0.00 in0.0 mm 0.00 in0.0 mm 0.00 in0.0 mm
01:05 PM 64.9°F18.3°C 28.2°F-2.1°C 25% 2.7 mph NE4.3 kmh NE 7.4 mph11.9 kmh 29.38 in994.9 mb 0.00 in0.0 mm 0.00 in0.0 mm 0.00 in0.0 mm
01:00 PM 64.2°F17.9°C 28.6°F-1.9°C 26% 6.5 mph NW10.5 kmh NW 12.3 mph19.8 kmh 29.38 in994.9 mb 0.00 in0.0 mm 0.00 in0.0 mm 0.00 in0.0 mm
12:55 PM 64.2°F17.9°C 28.6°F-1.9°C 26% 8.1 mph N13.0 kmh N 12.3 mph19.8 kmh 29.38 in994.9 mb 0.00 in0.0 mm 0.00 in0.0 mm 0.00 in0.0 mm
12:50 PM 64.2°F17.9°C 28.0°F-2.2°C 25% 7.3 mph N11.7 kmh N 12.3 mph19.8 kmh 29.38 in994.9 mb 0.00 in0.0 mm 0.00 in0.0 mm 0.00 in0.0 mm
12:45 PM 64.2°F17.9°C 28.6°F-1.9°C 26% 4.9 mph N7.9 kmh N 9.8 mph15.8 kmh 29.39 in995.3 mb 0.00 in0.0 mm 0.00 in0.0 mm 0.00 in0.0 mm
12:40 PM 63.5°F17.5°C 28.2°F-2.1°C 26% 6.5 mph NNE10.5 kmh NNE 12.3 mph19.8 kmh 29.39 in995.3 mb 0.00 in0.0 mm 0.00 in0.0 mm 0.00 in0.0 mm
12:35 PM 63.5°F17.5°C 28.6°F-1.9°C 27% 6.9 mph N11.1 kmh N 9.8 mph15.8 kmh 29.39 in995.3 mb 0.00 in0.0 mm 0.00 in0.0 mm 0.00 in0.0 mm
12:30 PM 63.5°F17.5°C 28.0°F-2.2°C 26% 5.5 mph NNW8.9 kmh NNW 9.8 mph15.8 kmh 29.39 in995.3 mb 0.00 in0.0 mm 0.00 in0.0 mm 0.00 in0.0 mm
12:25 PM 63.6°F17.6°C 28.1°F-2.2°C 26% 5.9 mph N9.5 kmh N 9.8 mph15.8 kmh 29.40 in995.6 mb 0.00 in0.0 mm 0.00 in0.0 mm 0.00 in0.0 mm
12:20 PM 62.8°F17.1°C 28.5°F-1.9°C 27% 4.2 mph N6.8 kmh N 7.4 mph11.9 kmh 29.40 in995.6 mb 0.00 in0.0 mm 0.00 in0.0 mm 0.00 in0.0 mm
12:15 PM 62.7°F17.1°C 28.4°F-2.0°C 27% 6.1 mph NNW9.8 kmh NNW 9.8 mph15.8 kmh 29.41 in995.9 mb 0.00 in0.0 mm 0.00 in0.0 mm 0.00 in0.0 mm
12:10 PM 62.8°F17.1°C 28.0°F-2.2°C 27% 8.4 mph N13.5 kmh N 15.0 mph24.1 kmh 29.41 in995.9 mb 0.00 in0.0 mm 0.00 in0.0 mm 0.00 in0.0 mm
12:05 PM 62.7°F17.1°C 27.9°F-2.3°C 27% 3.0 mph N4.8 kmh N 4.9 mph7.9 kmh 29.41 in995.9 mb 0.00 in0.0 mm 0.00 in0.0 mm 0.00 in0.0 mm
12:00 PM 62.4°F16.9°C 27.1°F-2.7°C 26% 5.6 mph NNE9.0 kmh NNE 15.0 mph24.1 kmh 29.41 in995.9 mb 0.00 in0.0 mm 0.00 in0.0 mm 0.00 in0.0 mm
11:55 AM 62.2°F16.8°C 28.0°F-2.2°C 27% 5.7 mph N9.2 kmh N 15.0 mph24.1 kmh 29.41 in995.9 mb 0.00 in0.0 mm 0.00 in0.0 mm 0.00 in0.0 mm
11:50 AM 62.2°F16.8°C 28.4°F-2.0°C 28% 3.6 mph NE5.8 kmh NE 9.8 mph15.8 kmh 29.42 in996.3 mb 0.00 in0.0 mm 0.00 in0.0 mm 0.00 in0.0 mm
11:45 AM 62.1°F16.7°C 29.2°F-1.6°C 29% 4.2 mph N6.8 kmh N 9.8 mph15.8 kmh 29.43 in996.6 mb 0.00 in0.0 mm 0.00 in0.0 mm 0.00 in0.0 mm
11:40 AM 61.0°F16.1°C 28.1°F-2.2°C 29% 3.3 mph NW5.3 kmh NW 12.3 mph19.8 kmh 29.43 in996.6 mb 0.00 in0.0 mm 0.00 in0.0 mm 0.00 in0.0 mm
11:35 AM 60.7°F15.9°C 28.3°F-2.1°C 29% 4.0 mph N6.4 kmh N 9.8 mph15.8 kmh 29.43 in996.6 mb 0.00 in0.0 mm 0.00 in0.0 mm 0.00 in0.0 mm
11:30 AM 60.6°F15.9°C 28.3°F-2.1°C 29% 4.1 mph NNE6.6 kmh NNE 7.4 mph11.9 kmh 29.43 in996.6 mb 0.00 in0.0 mm 0.00 in0.0 mm 0.00 in0.0 mm
11:25 AM 60.4°F15.8°C 28.0°F-2.2°C 29% 4.2 mph N6.8 kmh N 7.4 mph11.9 kmh 29.43 in996.6 mb 0.00 in0.0 mm 0.00 in0.0 mm 0.00 in0.0 mm
11:20 AM 59.7°F15.4°C 28.2°F-2.1°C 30% 4.8 mph N7.7 kmh N 9.8 mph15.8 kmh 29.43 in996.6 mb 0.00 in0.0 mm 0.00 in0.0 mm 0.00 in0.0 mm
11:15 AM 59.4°F15.2°C 28.4°F-2.0°C 30% 5.4 mph NNE8.7 kmh NNE 9.8 mph15.8 kmh 29.43 in996.6 mb 0.00 in0.0 mm 0.00 in0.0 mm 0.00 in0.0 mm
11:10 AM 59.2°F15.1°C 28.6°F-1.9°C 31% 7.0 mph N11.3 kmh N 15.0 mph24.1 kmh 29.43 in996.6 mb 0.00 in0.0 mm 0.00 in0.0 mm 0.00 in0.0 mm
11:05 AM 59.2°F15.1°C 29.5°F-1.4°C 32% 5.8 mph NW9.3 kmh NW 12.3 mph19.8 kmh 29.44 in997.0 mb 0.00 in0.0 mm 0.00 in0.0 mm 0.00 in0.0 mm
11:00 AM 57.1°F13.9°C 29.3°F-1.5°C 34% 3.4 mph NW5.5 kmh NW 4.9 mph7.9 kmh 29.44 in997.0 mb 0.00 in0.0 mm 0.00 in0.0 mm 0.00 in0.0 mm
10:55 AM 56.2°F13.4°C 30.6°F-0.8°C 38% 1.9 mph N3.1 kmh N 4.9 mph7.9 kmh 29.44 in997.0 mb 0.00 in0.0 mm 0.00 in0.0 mm 0.00 in0.0 mm
10:50 AM 56.1°F13.4°C 31.5°F-0.3°C 39% 2.7 mph NW4.3 kmh NW 4.9 mph7.9 kmh 29.44 in997.0 mb 0.00 in0.0 mm 0.00 in0.0 mm 0.00 in0.0 mm
10:45 AM 56.0°F13.3°C 32.3°F0.2°C 40% 3.0 mph NNW4.8 kmh NNW 7.4 mph11.9 kmh 29.43 in996.6 mb 0.00 in0.0 mm 0.00 in0.0 mm 0.00 in0.0 mm
10:40 AM 53.6°F12.0°C 30.8°F-0.7°C 42% 1.8 mph NNW2.9 kmh NNW 4.9 mph7.9 kmh 29.43 in996.6 mb 0.00 in0.0 mm 0.00 in0.0 mm 0.00 in0.0 mm
10:35 AM 52.7°F11.5°C 29.1°F-1.6°C 40% 3.2 mph N5.1 kmh N 4.9 mph7.9 kmh 29.42 in996.3 mb 0.00 in0.0 mm 0.00 in0.0 mm 0.00 in0.0 mm
10:30 AM 52.5°F11.4°C 29.5°F-1.4°C 41% 2.2 mph NE3.5 kmh NE 4.9 mph7.9 kmh 29.43 in996.6 mb 0.00 in0.0 mm 0.00 in0.0 mm 0.00 in0.0 mm
10:25 AM 52.5°F11.4°C 29.2°F-1.6°C 40% 3.3 mph NW5.3 kmh NW 7.4 mph11.9 kmh 29.43 in996.6 mb 0.00 in0.0 mm 0.00 in0.0 mm 0.00 in0.0 mm
10:20 AM 51.8°F11.0°C 28.9°F-1.7°C 41% 4.0 mph NW6.4 kmh NW 7.4 mph11.9 kmh 29.42 in996.3 mb 0.00 in0.0 mm 0.00 in0.0 mm 0.00 in0.0 mm
10:15 AM 51.2°F10.7°C 28.5°F-1.9°C 41% 3.1 mph N5.0 kmh N 9.8 mph15.8 kmh 29.42 in996.3 mb 0.00 in0.0 mm 0.00 in0.0 mm 0.00 in0.0 mm
10:10 AM 51.0°F10.6°C 28.5°F-1.9°C 42% 4.5 mph N7.2 kmh N 7.4 mph11.9 kmh 29.42 in996.3 mb 0.00 in0.0 mm 0.00 in0.0 mm 0.00 in0.0 mm
10:05 AM 50.9°F10.5°C 29.5°F-1.4°C 44% 3.7 mph N6.0 kmh N 7.4 mph11.9 kmh 29.42 in996.3 mb 0.00 in0.0 mm 0.00 in0.0 mm 0.00 in0.0 mm
10:00 AM 50.1°F10.1°C 29.6°F-1.3°C 45% 5.5 mph N8.9 kmh N 7.4 mph11.9 kmh 29.41 in995.9 mb 0.00 in0.0 mm 0.00 in0.0 mm 0.00 in0.0 mm
09:55 AM 49.6°F9.8°C 29.9°F-1.2°C 46% 2.8 mph NNW4.5 kmh NNW 4.9 mph7.9 kmh 29.41 in995.9 mb 0.00 in0.0 mm 0.00 in0.0 mm 0.00 in0.0 mm
09:50 AM 49.3°F9.6°C 30.7°F-0.7°C 48% 2.8 mph NNW4.5 kmh NNW 7.4 mph11.9 kmh 29.41 in995.9 mb 0.00 in0.0 mm 0.00 in0.0 mm 0.00 in0.0 mm
09:45 AM 49.1°F9.5°C 31.8°F-0.1°C 51% 2.4 mph NW3.9 kmh NW 7.4 mph11.9 kmh 29.41 in995.9 mb 0.00 in0.0 mm 0.00 in0.0 mm 0.00 in0.0 mm
09:40 AM 48.3°F9.1°C 31.8°F-0.1°C 53% 3.5 mph NNW5.6 kmh NNW 7.4 mph11.9 kmh 29.40 in995.6 mb 0.00 in0.0 mm 0.00 in0.0 mm 0.00 in0.0 mm
09:35 AM 47.6°F8.7°C 31.5°F-0.3°C 53% 2.0 mph NW3.2 kmh NW 4.9 mph7.9 kmh 29.41 in995.9 mb 0.00 in0.0 mm 0.00 in0.0 mm 0.00 in0.0 mm
09:30 AM 47.5°F8.6°C 31.5°F-0.3°C 54% 1.8 mph N2.9 kmh N 4.9 mph7.9 kmh 29.41 in995.9 mb 0.00 in0.0 mm 0.00 in0.0 mm 0.00 in0.0 mm
09:25 AM 47.5°F8.6°C 31.7°F-0.2°C 54% 1.3 mph WNW2.1 kmh WNW 2.5 mph4.0 kmh 29.41 in995.9 mb 0.00 in0.0 mm 0.00 in0.0 mm 0.00 in0.0 mm
09:20 AM 47.1°F8.4°C 31.6°F-0.2°C 55% 1.7 mph N2.7 kmh N 4.9 mph7.9 kmh 29.41 in995.9 mb 0.00 in0.0 mm 0.00 in0.0 mm 0.00 in0.0 mm
09:15 AM 46.3°F7.9°C 31.1°F-0.5°C 55% 1.6 mph WNW2.6 kmh WNW 4.9 mph7.9 kmh 29.41 in995.9 mb 0.00 in0.0 mm 0.00 in0.0 mm 0.00 in0.0 mm
09:10 AM 46.1°F7.8°C 31.6°F-0.2°C 57% 1.3 mph NW2.1 kmh NW 4.9 mph7.9 kmh 29.40 in995.6 mb 0.00 in0.0 mm 0.00 in0.0 mm 0.00 in0.0 mm
09:05 AM 46.0°F7.8°C 31.7°F-0.2°C 57% 0.8 mph NW1.3 kmh NW 2.5 mph4.0 kmh 29.40 in995.6 mb 0.00 in0.0 mm 0.00 in0.0 mm 0.00 in0.0 mm
09:00 AM 45.7°F7.6°C 31.8°F-0.1°C 58% 1.5 mph NW2.4 kmh NW 4.9 mph7.9 kmh 29.40 in995.6 mb 0.00 in0.0 mm 0.00 in0.0 mm 0.00 in0.0 mm
08:55 AM 45.2°F7.3°C 31.3°F-0.4°C 58% 1.0 mph NW1.6 kmh NW 4.9 mph7.9 kmh 29.40 in995.6 mb 0.00 in0.0 mm 0.00 in0.0 mm 0.00 in0.0 mm
08:50 AM 45.1°F7.3°C 31.7°F-0.2°C 59% 1.3 mph NW2.1 kmh NW 4.9 mph7.9 kmh 29.40 in995.6 mb 0.00 in0.0 mm 0.00 in0.0 mm 0.00 in0.0 mm
08:45 AM 45.0°F7.2°C 32.2°F0.1°C 60% 1.8 mph NW2.9 kmh NW 4.9 mph7.9 kmh 29.39 in995.3 mb 0.00 in0.0 mm 0.00 in0.0 mm 0.00 in0.0 mm
08:40 AM 44.9°F7.2°C 33.1°F0.6°C 63% 1.5 mph NW2.4 kmh NW 4.9 mph7.9 kmh 29.39 in995.3 mb 0.00 in0.0 mm 0.00 in0.0 mm 0.00 in0.0 mm
08:35 AM 44.6°F7.0°C 33.4°F0.8°C 64% 0.6 mph WNW1.0 kmh WNW 2.5 mph4.0 kmh 29.38 in994.9 mb 0.00 in0.0 mm 0.00 in0.0 mm 0.00 in0.0 mm
08:30 AM 44.6°F7.0°C 34.0°F1.1°C 66% 0.7 mph NW1.1 kmh NW 2.5 mph4.0 kmh 29.38 in994.9 mb 0.00 in0.0 mm 0.00 in0.0 mm 0.00 in0.0 mm
08:25 AM 44.6°F7.0°C 34.0°F1.1°C 66% 2.6 mph NW4.2 kmh NW 7.4 mph11.9 kmh 29.38 in994.9 mb 0.00 in0.0 mm 0.00 in0.0 mm 0.00 in0.0 mm
08:20 AM 44.7°F7.1°C 33.8°F1.0°C 65% 1.5 mph NW2.4 kmh NW 4.9 mph7.9 kmh 29.38 in994.9 mb 0.00 in0.0 mm 0.00 in0.0 mm 0.00 in0.0 mm
08:15 AM 45.0°F7.2°C 34.0°F1.1°C 65% 0.5 mph WNW0.8 kmh WNW 2.5 mph4.0 kmh 29.37 in994.6 mb 0.00 in0.0 mm 0.00 in0.0 mm 0.00 in0.0 mm
08:10 AM 45.1°F7.3°C 33.7°F0.9°C 64% 0.6 mph NW1.0 kmh NW 2.5 mph4.0 kmh 29.36 in994.2 mb 0.00 in0.0 mm 0.00 in0.0 mm 0.00 in0.0 mm
08:05 AM 45.1°F7.3°C 34.0°F1.1°C 65% 1.2 mph NW1.9 kmh NW 4.9 mph7.9 kmh 29.36 in994.2 mb 0.00 in0.0 mm 0.00 in0.0 mm 0.00 in0.0 mm
08:00 AM 45.0°F7.2°C 34.3°F1.3°C 66% 1.3 mph NW2.1 kmh NW 4.9 mph7.9 kmh 29.36 in994.2 mb 0.00 in0.0 mm 0.00 in0.0 mm 0.00 in0.0 mm
07:55 AM 44.8°F7.1°C 34.5°F1.4°C 67% 1.3 mph NW2.1 kmh NW 4.9 mph7.9 kmh 29.35 in993.9 mb 0.00 in0.0 mm 0.00 in0.0 mm 0.00 in0.0 mm
07:50 AM 44.7°F7.1°C 34.6°F1.4°C 68% 0.7 mph NW1.1 kmh NW 2.5 mph4.0 kmh 29.35 in993.9 mb 0.00 in0.0 mm 0.00 in0.0 mm 0.00 in0.0 mm
07:45 AM 44.6°F7.0°C 34.7°F1.5°C 68% 1.1 mph NW1.8 kmh NW 4.9 mph7.9 kmh 29.35 in993.9 mb 0.00 in0.0 mm 0.00 in0.0 mm 0.00 in0.0 mm
07:40 AM 44.7°F7.1°C 34.4°F1.3°C 67% Calm Calm -- 29.36 in994.2 mb 0.00 in0.0 mm 0.00 in0.0 mm 0.00 in0.0 mm
07:35 AM 45.6°F7.6°C 35.3°F1.8°C 67% Calm Calm -- 29.34 in993.6 mb 0.00 in0.0 mm 0.00 in0.0 mm 0.00 in0.0 mm
07:30 AM 45.8°F7.7°C 35.3°F1.8°C 67% 1.1 mph NW1.8 kmh NW 4.9 mph7.9 kmh 29.34 in993.6 mb 0.00 in0.0 mm 0.00 in0.0 mm 0.00 in0.0 mm
07:25 AM 45.9°F7.7°C 35.0°F1.7°C 66% Calm Calm -- 29.35 in993.9 mb 0.00 in0.0 mm 0.00 in0.0 mm 0.00 in0.0 mm
07:20 AM 45.9°F7.7°C 34.2°F1.2°C 63% 0.4 mph WNW0.6 kmh WNW 2.5 mph4.0 kmh 29.35 in993.9 mb 0.00 in0.0 mm 0.00 in0.0 mm 0.00 in0.0 mm
07:15 AM 47.2°F8.4°C 35.3°F1.8°C 63% 1.0 mph WNW1.6 kmh WNW 4.9 mph7.9 kmh 29.34 in993.6 mb 0.00 in0.0 mm 0.00 in0.0 mm 0.00 in0.0 mm
07:10 AM 47.4°F8.6°C 35.4°F1.9°C 63% 1.9 mph WNW3.1 kmh WNW 4.9 mph7.9 kmh 29.34 in993.6 mb 0.00 in0.0 mm 0.00 in0.0 mm 0.00 in0.0 mm
07:05 AM 47.5°F8.6°C 35.5°F1.9°C 63% 2.1 mph NW3.4 kmh NW 4.9 mph7.9 kmh 29.34 in993.6 mb 0.00 in0.0 mm 0.00 in0.0 mm 0.00 in0.0 mm
07:00 AM 47.6°F8.7°C 35.7°F2.1°C 63% 2.2 mph NW3.5 kmh NW 4.9 mph7.9 kmh 29.33 in993.2 mb 0.00 in0.0 mm 0.00 in0.0 mm 0.00 in0.0 mm
06:55 AM 47.1°F8.4°C 35.9°F2.2°C 65% 0.8 mph NW1.3 kmh NW 2.5 mph4.0 kmh 29.33 in993.2 mb 0.00 in0.0 mm 0.00 in0.0 mm 0.00 in0.0 mm
06:50 AM 47.1°F8.4°C 37.5°F3.1°C 69% 2.3 mph NW3.7 kmh NW 7.4 mph11.9 kmh 29.33 in993.2 mb 0.00 in0.0 mm 0.00 in0.0 mm 0.00 in0.0 mm
06:45 AM 47.1°F8.4°C 37.6°F3.1°C 70% 0.5 mph W0.8 kmh W 2.5 mph4.0 kmh 29.32 in992.9 mb 0.00 in0.0 mm 0.00 in0.0 mm 0.00 in0.0 mm
06:40 AM 47.1°F8.4°C 37.5°F3.1°C 69% Calm Calm -- 29.32 in992.9 mb 0.00 in0.0 mm 0.00 in0.0 mm 0.00 in0.0 mm
06:35 AM 46.9°F8.3°C 37.3°F2.9°C 69% Calm Calm -- 29.31 in992.6 mb 0.00 in0.0 mm 0.00 in0.0 mm 0.00 in0.0 mm
06:30 AM 46.9°F8.3°C 37.6°F3.1°C 70% 0.2 mph NW0.3 kmh NW 2.5 mph4.0 kmh 29.31 in992.6 mb 0.00 in0.0 mm 0.00 in0.0 mm 0.00 in0.0 mm
06:25 AM 46.9°F8.3°C 37.9°F3.3°C 71% 0.3 mph W0.5 kmh W 2.5 mph4.0 kmh 29.31 in992.6 mb 0.00 in0.0 mm 0.00 in0.0 mm 0.00 in0.0 mm
06:20 AM 46.9°F8.3°C 37.6°F3.1°C 70% 0.7 mph W1.1 kmh W 2.5 mph4.0 kmh 29.31 in992.6 mb 0.00 in0.0 mm 0.00 in0.0 mm 0.00 in0.0 mm
06:15 AM 47.3°F8.5°C 38.0°F3.3°C 70% Calm Calm -- 29.31 in992.6 mb 0.00 in0.0 mm 0.00 in0.0 mm 0.00 in0.0 mm
06:10 AM 47.3°F8.5°C 38.0°F3.3°C 70% 0.7 mph WSW1.1 kmh WSW 2.5 mph4.0 kmh 29.30 in992.2 mb 0.00 in0.0 mm 0.00 in0.0 mm 0.00 in0.0 mm
06:05 AM 47.4°F8.6°C 38.1°F3.4°C 70% 0.6 mph W1.0 kmh W 2.5 mph4.0 kmh 29.30 in992.2 mb 0.00 in0.0 mm 0.00 in0.0 mm 0.00 in0.0 mm
06:00 AM 47.5°F8.6°C 38.3°F3.5°C 70% 0.1 mph WSW0.2 kmh WSW 2.5 mph4.0 kmh 29.30 in992.2 mb 0.00 in0.0 mm 0.00 in0.0 mm 0.00 in0.0 mm
05:55 AM 47.7°F8.7°C 38.8°F3.8°C 71% 0.3 mph W0.5 kmh W 2.5 mph4.0 kmh 29.30 in992.2 mb 0.00 in0.0 mm 0.00 in0.0 mm 0.00 in0.0 mm
05:50 AM 47.7°F8.7°C 38.4°F3.6°C 70% Calm Calm -- 29.30 in992.2 mb 0.00 in0.0 mm 0.00 in0.0 mm 0.00 in0.0 mm
05:45 AM 47.7°F8.7°C 38.1°F3.4°C 69% 0.1 mph W0.2 kmh W 2.5 mph4.0 kmh 29.30 in992.2 mb 0.00 in0.0 mm 0.00 in0.0 mm 0.00 in0.0 mm
05:40 AM 47.8°F8.8°C 37.8°F3.2°C 68% 0.2 mph W0.3 kmh W 2.5 mph4.0 kmh 29.30 in992.2 mb 0.00 in0.0 mm 0.00 in0.0 mm 0.00 in0.0 mm
05:35 AM 47.8°F8.8°C 37.5°F3.1°C 67% 0.2 mph WSW0.3 kmh WSW 2.5 mph4.0 kmh 29.29 in991.9 mb 0.00 in0.0 mm 0.00 in0.0 mm 0.00 in0.0 mm
05:30 AM 47.8°F8.8°C 37.5°F3.1°C 67% 0.1 mph WSW0.2 kmh WSW 2.5 mph4.0 kmh 29.30 in992.2 mb 0.00 in0.0 mm 0.00 in0.0 mm 0.00 in0.0 mm
05:25 AM 47.8°F8.8°C 37.9°F3.3°C 68% 0.2 mph W0.3 kmh W 2.5 mph4.0 kmh 29.29 in991.9 mb 0.00 in0.0 mm 0.00 in0.0 mm 0.00 in0.0 mm
05:20 AM 47.8°F8.8°C 37.9°F3.3°C 68% 0.1 mph NW0.2 kmh NW 2.5 mph4.0 kmh 29.29 in991.9 mb 0.00 in0.0 mm 0.00 in0.0 mm 0.00 in0.0 mm
05:15 AM 48.5°F9.2°C 38.0°F3.3°C 67% Calm Calm -- 29.29 in991.9 mb 0.00 in0.0 mm 0.00 in0.0 mm 0.00 in0.0 mm
05:10 AM 48.7°F9.3°C 37.6°F3.1°C 65% 0.6 mph WSW1.0 kmh WSW 2.5 mph4.0 kmh 29.30 in992.2 mb 0.00 in0.0 mm 0.00 in0.0 mm 0.00 in0.0 mm
05:05 AM 48.7°F9.3°C 37.6°F3.1°C 65% 0.4 mph SW0.6 kmh SW 2.5 mph4.0 kmh 29.29 in991.9 mb 0.00 in0.0 mm 0.00 in0.0 mm 0.00 in0.0 mm
05:00 AM 48.7°F9.3°C 37.3°F2.9°C 64% 0.2 mph WSW0.3 kmh WSW 2.5 mph4.0 kmh 29.29 in991.9 mb 0.00 in0.0 mm 0.00 in0.0 mm 0.00 in0.0 mm
04:55 AM 49.2°F9.6°C 37.6°F3.1°C 64% 0.4 mph WSW0.6 kmh WSW 2.5 mph4.0 kmh 29.28 in991.5 mb 0.00 in0.0 mm 0.00 in0.0 mm 0.00 in0.0 mm
04:50 AM 49.3°F9.6°C 37.3°F2.9°C 63% 1.1 mph SW1.8 kmh SW 2.5 mph4.0 kmh 29.28 in991.5 mb 0.00 in0.0 mm 0.00 in0.0 mm 0.00 in0.0 mm
04:45 AM 49.3°F9.6°C 37.0°F2.8°C 62% 1.3 mph SW2.1 kmh SW 2.5 mph4.0 kmh 29.28 in991.5 mb 0.00 in0.0 mm 0.00 in0.0 mm 0.00 in0.0 mm
04:40 AM 49.4°F9.7°C 36.8°F2.7°C 62% 1.3 mph SW2.1 kmh SW 2.5 mph4.0 kmh 29.28 in991.5 mb 0.00 in0.0 mm 0.00 in0.0 mm 0.00 in0.0 mm
04:35 AM 49.7°F9.8°C 36.8°F2.7°C 61% 1.6 mph SW2.6 kmh SW 2.5 mph4.0 kmh 29.28 in991.5 mb 0.00 in0.0 mm 0.00 in0.0 mm 0.00 in0.0 mm
04:30 AM 49.8°F9.9°C 36.9°F2.7°C 61% 0.9 mph SW1.4 kmh SW 2.5 mph4.0 kmh 29.28 in991.5 mb 0.00 in0.0 mm 0.00 in0.0 mm 0.00 in0.0 mm
04:25 AM 49.8°F9.9°C 36.9°F2.7°C 61% 1.0 mph SW1.6 kmh SW 2.5 mph4.0 kmh 29.28 in991.5 mb 0.00 in0.0 mm 0.00 in0.0 mm 0.00 in0.0 mm
04:20 AM 49.9°F9.9°C 36.6°F2.6°C 60% 0.2 mph SW0.3 kmh SW 2.5 mph4.0 kmh 29.28 in991.5 mb 0.00 in0.0 mm 0.00 in0.0 mm 0.00 in0.0 mm
04:15 AM 50.0°F10.0°C 36.1°F2.3°C 59% 0.7 mph SW1.1 kmh SW 2.5 mph4.0 kmh 29.28 in991.5 mb 0.00 in0.0 mm 0.00 in0.0 mm 0.00 in0.0 mm
04:10 AM 50.0°F10.0°C 35.8°F2.1°C 58% 0.8 mph WSW1.3 kmh WSW 2.5 mph4.0 kmh 29.28 in991.5 mb 0.00 in0.0 mm 0.00 in0.0 mm 0.00 in0.0 mm
04:05 AM 50.0°F10.0°C 35.8°F2.1°C 58% 0.6 mph WSW1.0 kmh WSW 2.5 mph4.0 kmh 29.28 in991.5 mb 0.00 in0.0 mm 0.00 in0.0 mm 0.00 in0.0 mm
04:00 AM 50.0°F10.0°C 36.1°F2.3°C 59% 1.0 mph WSW1.6 kmh WSW 2.5 mph4.0 kmh 29.28 in991.5 mb 0.00 in0.0 mm 0.00 in0.0 mm 0.00 in0.0 mm
03:55 AM 50.3°F10.2°C 36.5°F2.5°C 59% 0.7 mph WSW1.1 kmh WSW 2.5 mph4.0 kmh 29.28 in991.5 mb 0.00 in0.0 mm 0.00 in0.0 mm 0.00 in0.0 mm
03:50 AM 50.5°F10.3°C 36.3°F2.4°C 58% 0.5 mph SW0.8 kmh SW 2.5 mph4.0 kmh 29.28 in991.5 mb 0.00 in0.0 mm 0.00 in0.0 mm 0.00 in0.0 mm
03:45 AM 50.5°F10.3°C 36.5°F2.5°C 58% 1.3 mph SW2.1 kmh SW 2.5 mph4.0 kmh 29.28 in991.5 mb 0.00 in0.0 mm 0.00 in0.0 mm 0.00 in0.0 mm
03:40 AM 50.6°F10.3°C 36.3°F2.4°C 58% 0.9 mph SW1.4 kmh SW 4.9 mph7.9 kmh 29.29 in991.9 mb 0.00 in0.0 mm 0.00 in0.0 mm 0.00 in0.0 mm
03:35 AM 50.7°F10.4°C 35.3°F1.8°C 55% 1.0 mph SW1.6 kmh SW 2.5 mph4.0 kmh 29.29 in991.9 mb 0.00 in0.0 mm 0.00 in0.0 mm 0.00 in0.0 mm
03:30 AM 50.7°F10.4°C 34.4°F1.3°C 53% 0.9 mph SW1.4 kmh SW 2.5 mph4.0 kmh 29.28 in991.5 mb 0.00 in0.0 mm 0.00 in0.0 mm 0.00 in0.0 mm
03:25 AM 50.7°F10.4°C 34.0°F1.1°C 53% Calm Calm -- 29.29 in991.9 mb 0.00 in0.0 mm 0.00 in0.0 mm 0.00 in0.0 mm
03:20 AM 50.7°F10.4°C 33.7°F0.9°C 52% 0.4 mph SW0.6 kmh SW 2.5 mph4.0 kmh 29.29 in991.9 mb 0.00 in0.0 mm 0.00 in0.0 mm 0.00 in0.0 mm
03:15 AM 50.5°F10.3°C 34.0°F1.1°C 53% 0.1 mph SW0.2 kmh SW 2.5 mph4.0 kmh 29.29 in991.9 mb 0.00 in0.0 mm 0.00 in0.0 mm 0.00 in0.0 mm
03:10 AM 50.4°F10.2°C 33.9°F1.1°C 53% Calm Calm 2.5 mph4.0 kmh 29.29 in991.9 mb 0.00 in0.0 mm 0.00 in0.0 mm 0.00 in0.0 mm
03:05 AM 50.2°F10.1°C 33.8°F1.0°C 53% 0.2 mph S0.3 kmh S 2.5 mph4.0 kmh 29.29 in991.9 mb 0.00 in0.0 mm 0.00 in0.0 mm 0.00 in0.0 mm
03:00 AM 50.2°F10.1°C 34.0°F1.1°C 54% 0.5 mph SW0.8 kmh SW 2.5 mph4.0 kmh 29.29 in991.9 mb 0.00 in0.0 mm 0.00 in0.0 mm 0.00 in0.0 mm
02:55 AM 50.0°F10.0°C 34.4°F1.3°C 55% 0.3 mph SW0.5 kmh SW 2.5 mph4.0 kmh 29.28 in991.5 mb 0.00 in0.0 mm 0.00 in0.0 mm 0.00 in0.0 mm
02:50 AM 49.8°F9.9°C 35.1°F1.7°C 57% 0.1 mph SW0.2 kmh SW 2.5 mph4.0 kmh 29.28 in991.5 mb 0.00 in0.0 mm 0.00 in0.0 mm 0.00 in0.0 mm
02:45 AM 49.8°F9.9°C 35.2°F1.8°C 57% Calm Calm -- 29.28 in991.5 mb 0.00 in0.0 mm 0.00 in0.0 mm 0.00 in0.0 mm
02:40 AM 49.8°F9.9°C 34.7°F1.5°C 56% Calm Calm -- 29.29 in991.9 mb 0.00 in0.0 mm 0.00 in0.0 mm 0.00 in0.0 mm
02:35 AM 49.7°F9.8°C 35.4°F1.9°C 58% Calm Calm -- 29.29 in991.9 mb 0.00 in0.0 mm 0.00 in0.0 mm 0.00 in0.0 mm
02:30 AM 49.5°F9.7°C 35.2°F1.8°C 58% Calm Calm -- 29.30 in992.2 mb 0.00 in0.0 mm 0.00 in0.0 mm 0.00 in0.0 mm
02:25 AM 49.5°F9.7°C 36.3°F2.4°C 60% 0.3 mph SW0.5 kmh SW 2.5 mph4.0 kmh 29.30 in992.2 mb 0.00 in0.0 mm 0.00 in0.0 mm 0.00 in0.0 mm
02:20 AM 49.5°F9.7°C 36.6°F2.6°C 61% 0.4 mph SSW0.6 kmh SSW 2.5 mph4.0 kmh 29.29 in991.9 mb 0.00 in0.0 mm 0.00 in0.0 mm 0.00 in0.0 mm
02:15 AM 49.3°F9.6°C 36.6°F2.6°C 61% 0.2 mph WSW0.3 kmh WSW 2.5 mph4.0 kmh 29.30 in992.2 mb 0.00 in0.0 mm 0.00 in0.0 mm 0.00 in0.0 mm
02:10 AM 49.1°F9.5°C 36.6°F2.6°C 62% 0.2 mph W0.3 kmh W 2.5 mph4.0 kmh 29.30 in992.2 mb 0.00 in0.0 mm 0.00 in0.0 mm 0.00 in0.0 mm
02:05 AM 49.1°F9.5°C 36.8°F2.7°C 62% Calm Calm -- 29.30 in992.2 mb 0.00 in0.0 mm 0.00 in0.0 mm 0.00 in0.0 mm
02:00 AM 49.1°F9.5°C 37.1°F2.8°C 63% Calm Calm -- 29.30 in992.2 mb 0.00 in0.0 mm 0.00 in0.0 mm 0.00 in0.0 mm
01:55 AM 49.3°F9.6°C 37.2°F2.9°C 63% Calm Calm -- 29.29 in991.9 mb 0.00 in0.0 mm 0.00 in0.0 mm 0.00 in0.0 mm
01:50 AM 49.5°F9.7°C 37.5°F3.1°C 63% Calm Calm -- 29.30 in992.2 mb 0.00 in0.0 mm 0.00 in0.0 mm 0.00 in0.0 mm
01:45 AM 49.6°F9.8°C 37.5°F3.1°C 63% Calm Calm -- 29.31 in992.6 mb 0.00 in0.0 mm 0.00 in0.0 mm 0.00 in0.0 mm
01:40 AM 49.6°F9.8°C 37.5°F3.1°C 63% Calm Calm -- 29.30 in992.2 mb 0.00 in0.0 mm 0.00 in0.0 mm 0.00 in0.0 mm
01:35 AM 49.7°F9.8°C 37.6°F3.1°C 63% Calm Calm -- 29.31 in992.6 mb 0.00 in0.0 mm 0.00 in0.0 mm 0.00 in0.0 mm
01:30 AM 50.2°F10.1°C 38.1°F3.4°C 63% 0.4 mph W0.6 kmh W 2.5 mph4.0 kmh 29.30 in992.2 mb 0.00 in0.0 mm 0.00 in0.0 mm 0.00 in0.0 mm
01:25 AM 50.4°F10.2°C 38.2°F3.4°C 63% 0.7 mph NW1.1 kmh NW 2.5 mph4.0 kmh 29.30 in992.2 mb 0.00 in0.0 mm 0.00 in0.0 mm 0.00 in0.0 mm
01:20 AM 50.4°F10.2°C 37.7°F3.2°C 62% 1.2 mph NW1.9 kmh NW 4.9 mph7.9 kmh 29.30 in992.2 mb 0.00 in0.0 mm 0.00 in0.0 mm 0.00 in0.0 mm
01:15 AM 50.5°F10.3°C 37.3°F2.9°C 60% 0.5 mph NW0.8 kmh NW 2.5 mph4.0 kmh 29.30 in992.2 mb 0.00 in0.0 mm 0.00 in0.0 mm 0.00 in0.0 mm
01:10 AM 50.5°F10.3°C 36.9°F2.7°C 59% Calm Calm -- 29.30 in992.2 mb 0.00 in0.0 mm 0.00 in0.0 mm 0.00 in0.0 mm
01:05 AM 50.6°F10.3°C 36.8°F2.7°C 59% Calm Calm -- 29.30 in992.2 mb 0.00 in0.0 mm 0.00 in0.0 mm 0.00 in0.0 mm
01:00 AM 50.7°F10.4°C 36.9°F2.7°C 59% Calm Calm -- 29.30 in992.2 mb 0.00 in0.0 mm 0.00 in0.0 mm 0.00 in0.0 mm
12:55 AM 50.7°F10.4°C 36.6°F2.6°C 58% 0.6 mph NW1.0 kmh NW 2.5 mph4.0 kmh 29.30 in992.2 mb 0.00 in0.0 mm 0.00 in0.0 mm 0.00 in0.0 mm
12:50 AM 50.7°F10.4°C 36.0°F2.2°C 57% Calm Calm -- 29.30 in992.2 mb 0.00 in0.0 mm 0.00 in0.0 mm 0.00 in0.0 mm
12:45 AM 50.7°F10.4°C 36.0°F2.2°C 57% 0.4 mph WSW0.6 kmh WSW 2.5 mph4.0 kmh 29.29 in991.9 mb 0.00 in0.0 mm 0.00 in0.0 mm 0.00 in0.0 mm
12:40 AM 50.7°F10.4°C 36.0°F2.2°C 57% 0.2 mph WSW0.3 kmh WSW 2.5 mph4.0 kmh 29.30 in992.2 mb 0.00 in0.0 mm 0.00 in0.0 mm 0.00 in0.0 mm
12:35 AM 50.7°F10.4°C 36.4°F2.4°C 58% 0.4 mph WSW0.6 kmh WSW 2.5 mph4.0 kmh 29.30 in992.2 mb 0.00 in0.0 mm 0.00 in0.0 mm 0.00 in0.0 mm
12:30 AM 50.7°F10.4°C 36.9°F2.7°C 59% 0.4 mph WSW0.6 kmh WSW 2.5 mph4.0 kmh 29.30 in992.2 mb 0.00 in0.0 mm 0.00 in0.0 mm 0.00 in0.0 mm
12:25 AM 50.7°F10.4°C 36.9°F2.7°C 59% 0.2 mph WSW0.3 kmh WSW 2.5 mph4.0 kmh 29.30 in992.2 mb 0.00 in0.0 mm 0.00 in0.0 mm 0.00 in0.0 mm
12:20 AM 50.7°F10.4°C 36.5°F2.5°C 58% 0.7 mph WSW1.1 kmh WSW 2.5 mph4.0 kmh 29.31 in992.6 mb 0.00 in0.0 mm 0.00 in0.0 mm 0.00 in0.0 mm
12:15 AM 50.9°F10.5°C 36.3°F2.4°C 57% 0.8 mph SW1.3 kmh SW 2.5 mph4.0 kmh 29.31 in992.6 mb 0.00 in0.0 mm 0.00 in0.0 mm 0.00 in0.0 mm
12:10 AM 51.1°F10.6°C 36.0°F2.2°C 56% 1.0 mph SW1.6 kmh SW 2.5 mph4.0 kmh 29.31 in992.6 mb 0.00 in0.0 mm 0.00 in0.0 mm 0.00 in0.0 mm
12:05 AM 51.3°F10.7°C 36.1°F2.3°C 56% 0.6 mph SW1.0 kmh SW 2.5 mph4.0 kmh 29.31 in992.6 mb 0.00 in0.0 mm 0.00 in0.0 mm 0.00 in0.0 mm
12:00 AM 51.3°F10.7°C 36.1°F2.3°C 56% 1.0 mph WSW1.6 kmh WSW 2.5 mph4.0 kmh 29.30 in992.2 mb 0.00 in0.0 mm 0.00 in0.0 mm 0.00 in0.0 mm